Terminal Aerodrome Forecast
Issued by NWS Louisville, KY

Home | Current Version | Previous Version | Text Only | Print | Product List | Glossary On
Versions: 1 2 3 4 5 6 7 8 9 10 11 12 13 14 15
477
FTUS43 KLMK 071720
TAFSDF
TAF
KSDF 071720Z 0718/0824 30004KT P6SM BKN150
     FM072300 30003KT P6SM BKN090
     FM081200 28007KT P6SM SCT100
     FM082000 29007G15KT P6SM FEW250=

USA.gov is the U.S. government's official web portal to all federal, state and local government web resources and services.